Airfield :
LOGIN :

Register | Disclaimer

   EN    FR    IT 

 










Legend :    VFR   Marginal VFR   IFR   Intensive IFR   Very Intensive IFR
Visi :
Ceiling :
>= 8 km
>= 3000ft
5 to 8 km
1000 to 3000 ft
1500m to 5 km
500 to 1000 ft
800 to 1500m
200 to 500 ft
< 800m
< 200 ft
Symbols :   Thunderstorms  Fog  Heavy snow  Heavy precipitations  Wind > 20 kt
SIGMETs :     Misc.  Thunderstorms  Icing  Turbulence  Mountain Waves  Volcanic Ashes






- Airport Elevation : 327 ft
- IATA code : BHX


EGBB - Birmingham

CURRENT METAR :
  • 152020Z 36014KT 9999 BKN020 07/04 Q1005

EXPIRED METARs :
  • 151950Z 36013KT 9999 SCT020 BKN032 07/04 Q1005
  • 151920Z 35013KT 9999 FEW030 07/04 Q1005
  • 151850Z 36012KT 9999 FEW024 SCT035 07/04 Q1006
  • 151820Z 36013KT 9999 FEW024 07/04 Q1006
  • 151750Z 35013KT 9999 FEW025 07/04 Q1005

TAF TAF EGBB
Valid from the 15 at 18:00 until the 16 at 18:00 UTC


151702Z 1518/1618 01010KT 9999 FEW014 SCT020
PROB30
TEMPO 1518/1522 6000 SHRA BKN014
BECMG 1522/1601 VRB03KT FEW007 BKN011
TEMPO 1522/1605 7000 -RA
PROB40
TEMPO 1522/1605 4000 RA BKN007
BECMG 1605/1608 5000 BR FEW010 BKN025
PROB40 1605/1611 3000 BKN005
BECMG 1611/1613 9999 NSW
PROB30
TEMPO 1611/1616 BKN012
PROB40 1616/1618 BKN007
ATIS : +44 121 780 0910



MET'MAP, your aeronautical weather chart ! - Copyright ORBIFLY December 2007 - Disclaimer

ORBIFLY MET'MAP TEAM :

Programming & Development : Alexandra Zaïnal
Concept & Development : Baudouin d'Aumeries
Co-Development & Prog : Marc-Olivier Méhu
Technical & hardware support : Manuel Goepfert

Contact : metmap@orbifly.com




SOURCES & CREDITS :

   NOAA